sensor_id;sensor_type;location;lat;lon;timestamp;pressure;altitude;pressure_sealevel;temperature;humidity
69219;BME280;56232;53.384;-2.732;2023-03-23T00:01:13;98631.42;;;7.52;40.22
69219;BME280;56232;53.384;-2.732;2023-03-23T00:03:36;98626.12;;;7.37;40.38
69219;BME280;56232;53.384;-2.732;2023-03-23T00:06:02;98636.77;;;7.29;40.52
69219;BME280;56232;53.384;-2.732;2023-03-23T00:08:28;98641.74;;;7.33;39.91
69219;BME280;56232;53.384;-2.732;2023-03-23T00:10:53;98644.90;;;7.17;40.40
69219;BME280;56232;53.384;-2.732;2023-03-23T00:13:19;98647.38;;;7.07;40.53
69219;BME280;56232;53.384;-2.732;2023-03-23T00:15:45;98649.45;;;6.96;40.41
69219;BME280;56232;53.384;-2.732;2023-03-23T00:18:10;98653.06;;;7.69;40.44
69219;BME280;56232;53.384;-2.732;2023-03-23T00:20:36;98655.10;;;7.22;40.33
69219;BME280;56232;53.384;-2.732;2023-03-23T00:23:01;98657.46;;;7.45;40.05
69219;BME280;56232;53.384;-2.732;2023-03-23T00:25:28;98657.90;;;8.33;39.55
69219;BME280;56232;53.384;-2.732;2023-03-23T00:27:53;98659.09;;;7.17;39.58
69219;BME280;56232;53.384;-2.732;2023-03-23T00:30:19;98656.27;;;7.76;39.44
69219;BME280;56232;53.384;-2.732;2023-03-23T00:32:44;98663.00;;;7.61;39.44
69219;BME280;56232;53.384;-2.732;2023-03-23T00:35:09;98666.12;;;7.79;39.50
69219;BME280;56232;53.384;-2.732;2023-03-23T00:37:35;98672.33;;;7.98;39.37
69219;BME280;56232;53.384;-2.732;2023-03-23T00:40:01;98673.41;;;7.96;39.24
69219;BME280;56232;53.384;-2.732;2023-03-23T00:42:28;98668.20;;;7.64;38.99
69219;BME280;56232;53.384;-2.732;2023-03-23T00:44:53;98675.85;;;7.31;39.59
69219;BME280;56232;53.384;-2.732;2023-03-23T00:47:18;98680.12;;;7.12;39.75
69219;BME280;56232;53.384;-2.732;2023-03-23T00:49:44;98676.60;;;6.72;39.73
69219;BME280;56232;53.384;-2.732;2023-03-23T00:52:10;98684.38;;;6.60;39.88
69219;BME280;56232;53.384;-2.732;2023-03-23T00:54:35;98684.30;;;7.46;39.82
69219;BME280;56232;53.384;-2.732;2023-03-23T00:57:01;98691.86;;;6.27;39.98
69219;BME280;56232;53.384;-2.732;2023-03-23T00:59:27;98699.80;;;6.75;40.25
69219;BME280;56232;53.384;-2.732;2023-03-23T01:01:52;98703.50;;;6.04;40.32
69219;BME280;56232;53.384;-2.732;2023-03-23T01:04:18;98711.92;;;7.09;40.16
69219;BME280;56232;53.384;-2.732;2023-03-23T01:06:44;98714.99;;;5.91;40.26
69219;BME280;56232;53.384;-2.732;2023-03-23T01:09:11;98717.51;;;6.88;40.33
69219;BME280;56232;53.384;-2.732;2023-03-23T01:11:35;98721.71;;;6.77;40.31
69219;BME280;56232;53.384;-2.732;2023-03-23T01:14:01;98724.05;;;6.56;40.43
69219;BME280;56232;53.384;-2.732;2023-03-23T01:16:27;98733.90;;;6.48;40.67
69219;BME280;56232;53.384;-2.732;2023-03-23T01:18:52;98727.56;;;5.92;40.67
69219;BME280;56232;53.384;-2.732;2023-03-23T01:21:19;98734.50;;;5.87;40.74
69219;BME280;56232;53.384;-2.732;2023-03-23T01:23:44;98733.55;;;6.45;40.60
69219;BME280;56232;53.384;-2.732;2023-03-23T01:26:11;98732.42;;;5.99;40.28
69219;BME280;56232;53.384;-2.732;2023-03-23T01:28:35;98730.03;;;6.45;40.47
69219;BME280;56232;53.384;-2.732;2023-03-23T01:31:01;98737.35;;;6.39;40.40
69219;BME280;56232;53.384;-2.732;2023-03-23T01:33:27;98740.08;;;6.30;40.31
69219;BME280;56232;53.384;-2.732;2023-03-23T01:35:52;98750.28;;;6.22;40.34
69219;BME280;56232;53.384;-2.732;2023-03-23T01:38:17;98746.56;;;7.29;40.32
69219;BME280;56232;53.384;-2.732;2023-03-23T01:40:43;98747.43;;;6.58;40.43
69219;BME280;56232;53.384;-2.732;2023-03-23T01:43:13;98752.85;;;5.49;40.36
69219;BME280;56232;53.384;-2.732;2023-03-23T01:45:35;98753.04;;;5.60;40.31
69219;BME280;56232;53.384;-2.732;2023-03-23T01:48:06;98758.71;;;5.97;40.34
69219;BME280;56232;53.384;-2.732;2023-03-23T01:50:29;98757.83;;;5.97;40.28
69219;BME280;56232;53.384;-2.732;2023-03-23T01:52:53;98759.51;;;5.89;40.33
69219;BME280;56232;53.384;-2.732;2023-03-23T01:55:18;98760.74;;;5.79;40.46
69219;BME280;56232;53.384;-2.732;2023-03-23T01:57:44;98769.82;;;5.76;40.43
69219;BME280;56232;53.384;-2.732;2023-03-23T02:00:10;98769.76;;;5.75;40.10
69219;BME280;56232;53.384;-2.732;2023-03-23T02:02:35;98764.25;;;6.92;40.29
69219;BME280;56232;53.384;-2.732;2023-03-23T02:05:06;98755.39;;;5.89;40.15
69219;BME280;56232;53.384;-2.732;2023-03-23T02:07:28;98759.73;;;6.34;40.36
69219;BME280;56232;53.384;-2.732;2023-03-23T02:09:52;98752.94;;;5.80;40.10
69219;BME280;56232;53.384;-2.732;2023-03-23T02:12:18;98752.35;;;6.24;40.18
69219;BME280;56232;53.384;-2.732;2023-03-23T02:14:44;98745.08;;;5.23;40.11
69219;BME280;56232;53.384;-2.732;2023-03-23T02:17:14;98742.92;;;6.36;39.82
69219;BME280;56232;53.384;-2.732;2023-03-23T02:19:52;98749.55;;;5.98;39.76
69219;BME280;56232;53.384;-2.732;2023-03-23T02:26:56;98752.34;;;5.98;39.74
69219;BME280;56232;53.384;-2.732;2023-03-23T02:29:32;98753.15;;;6.50;39.70
69219;BME280;56232;53.384;-2.732;2023-03-23T02:34:14;98741.38;;;5.99;39.58
69219;BME280;56232;53.384;-2.732;2023-03-23T02:36:38;98739.13;;;6.04;39.66
69219;BME280;56232;53.384;-2.732;2023-03-23T02:39:05;98741.55;;;5.98;39.66
69219;BME280;56232;53.384;-2.732;2023-03-23T02:41:31;98751.57;;;5.99;39.61
69219;BME280;56232;53.384;-2.732;2023-03-23T02:43:53;98748.29;;;5.94;39.57
69219;BME280;56232;53.384;-2.732;2023-03-23T02:46:19;98753.69;;;5.93;39.56
69219;BME280;56232;53.384;-2.732;2023-03-23T02:48:45;98747.98;;;6.44;39.53
69219;BME280;56232;53.384;-2.732;2023-03-23T02:51:10;98747.58;;;5.94;39.47
69219;BME280;56232;53.384;-2.732;2023-03-23T02:53:38;98756.04;;;6.47;39.41
69219;BME280;56232;53.384;-2.732;2023-03-23T02:56:01;98746.05;;;6.10;39.34
69219;BME280;56232;53.384;-2.732;2023-03-23T02:58:27;98751.18;;;6.11;39.25
69219;BME280;56232;53.384;-2.732;2023-03-23T03:00:54;98752.68;;;6.07;39.28
69219;BME280;56232;53.384;-2.732;2023-03-23T03:03:20;98759.54;;;6.66;39.19
69219;BME280;56232;53.384;-2.732;2023-03-23T03:05:49;98759.21;;;6.62;39.31
69219;BME280;56232;53.384;-2.732;2023-03-23T03:08:15;98757.32;;;6.20;39.22
69219;BME280;56232;53.384;-2.732;2023-03-23T03:10:42;98755.69;;;6.16;39.15
69219;BME280;56232;53.384;-2.732;2023-03-23T03:13:04;98759.17;;;6.60;39.19
69219;BME280;56232;53.384;-2.732;2023-03-23T03:15:30;98761.64;;;6.03;39.37
69219;BME280;56232;53.384;-2.732;2023-03-23T03:17:57;98765.17;;;7.09;39.37
69219;BME280;56232;53.384;-2.732;2023-03-23T03:20:18;98754.23;;;5.91;39.34
69219;BME280;56232;53.384;-2.732;2023-03-23T03:22:44;98756.12;;;6.33;39.48
69219;BME280;56232;53.384;-2.732;2023-03-23T03:25:10;98757.20;;;6.31;39.37
69219;BME280;56232;53.384;-2.732;2023-03-23T03:27:34;98759.27;;;5.65;39.53
69219;BME280;56232;53.384;-2.732;2023-03-23T03:30:02;98756.29;;;6.21;39.49
69219;BME280;56232;53.384;-2.732;2023-03-23T03:32:31;98757.92;;;6.21;39.56
69219;BME280;56232;53.384;-2.732;2023-03-23T03:34:51;98758.54;;;5.73;39.55
69219;BME280;56232;53.384;-2.732;2023-03-23T03:37:17;98765.77;;;5.77;39.74
69219;BME280;56232;53.384;-2.732;2023-03-23T03:39:42;98761.29;;;5.38;39.52
69219;BME280;56232;53.384;-2.732;2023-03-23T03:42:08;98758.85;;;5.96;39.55
69219;BME280;56232;53.384;-2.732;2023-03-23T03:44:34;98765.35;;;5.88;39.38
69219;BME280;56232;53.384;-2.732;2023-03-23T03:46:58;98763.58;;;6.36;39.42
69219;BME280;56232;53.384;-2.732;2023-03-23T03:49:24;98760.57;;;5.82;39.32
69219;BME280;56232;53.384;-2.732;2023-03-23T03:51:50;98760.04;;;6.80;39.36
69219;BME280;56232;53.384;-2.732;2023-03-23T03:54:15;98762.37;;;6.15;39.22
69219;BME280;56232;53.384;-2.732;2023-03-23T03:56:41;98757.28;;;6.65;39.36
69219;BME280;56232;53.384;-2.732;2023-03-23T03:59:06;98759.61;;;6.08;39.28
69219;BME280;56232;53.384;-2.732;2023-03-23T04:01:32;98766.08;;;6.64;39.27
69219;BME280;56232;53.384;-2.732;2023-03-23T04:03:58;98762.27;;;6.08;39.11
69219;BME280;56232;53.384;-2.732;2023-03-23T04:06:23;98752.44;;;5.50;39.14
69219;BME280;56232;53.384;-2.732;2023-03-23T04:08:49;98758.74;;;5.90;39.24
69219;BME280;56232;53.384;-2.732;2023-03-23T04:11:14;98750.56;;;5.34;39.27
69219;BME280;56232;53.384;-2.732;2023-03-23T04:13:41;98745.59;;;6.50;39.15
69219;BME280;56232;53.384;-2.732;2023-03-23T04:16:07;98755.67;;;5.83;39.25
69219;BME280;56232;53.384;-2.732;2023-03-23T04:18:32;98754.55;;;6.34;39.41
69219;BME280;56232;53.384;-2.732;2023-03-23T04:20:58;98747.11;;;5.19;39.44
69219;BME280;56232;53.384;-2.732;2023-03-23T04:23:23;98754.30;;;5.15;39.54
69219;BME280;56232;53.384;-2.732;2023-03-23T04:25:50;98758.48;;;6.21;39.52
69219;BME280;56232;53.384;-2.732;2023-03-23T04:28:15;98761.64;;;6.20;39.71
69219;BME280;56232;53.384;-2.732;2023-03-23T04:30:40;98765.57;;;6.17;39.73
69219;BME280;56232;53.384;-2.732;2023-03-23T04:33:06;98763.22;;;5.54;39.74
69219;BME280;56232;53.384;-2.732;2023-03-23T04:35:31;98757.00;;;6.12;39.85
69219;BME280;56232;53.384;-2.732;2023-03-23T04:37:57;98760.76;;;5.61;39.64
69219;BME280;56232;53.384;-2.732;2023-03-23T04:40:24;98759.15;;;6.31;39.75
69219;BME280;56232;53.384;-2.732;2023-03-23T04:42:49;98757.01;;;5.33;39.83
69219;BME280;56232;53.384;-2.732;2023-03-23T04:45:17;98767.96;;;5.96;39.52
69219;BME280;56232;53.384;-2.732;2023-03-23T04:47:41;98765.22;;;6.09;39.37
69219;BME280;56232;53.384;-2.732;2023-03-23T04:50:07;98757.08;;;5.76;39.47
69219;BME280;56232;53.384;-2.732;2023-03-23T04:52:31;98756.97;;;5.89;39.17
69219;BME280;56232;53.384;-2.732;2023-03-23T04:54:56;98756.34;;;6.46;39.18
69219;BME280;56232;53.384;-2.732;2023-03-23T04:57:22;98751.56;;;6.06;39.34
69219;BME280;56232;53.384;-2.732;2023-03-23T04:59:48;98754.23;;;6.20;38.93
69219;BME280;56232;53.384;-2.732;2023-03-23T05:02:14;98755.20;;;6.33;38.68
69219;BME280;56232;53.384;-2.732;2023-03-23T05:04:39;98756.56;;;6.24;38.78
69219;BME280;56232;53.384;-2.732;2023-03-23T05:07:05;98753.16;;;6.16;38.99
69219;BME280;56232;53.384;-2.732;2023-03-23T05:09:31;98752.20;;;6.10;39.23
69219;BME280;56232;53.384;-2.732;2023-03-23T05:11:56;98747.38;;;6.17;39.04
69219;BME280;56232;53.384;-2.732;2023-03-23T05:14:22;98746.13;;;6.14;39.22
69219;BME280;56232;53.384;-2.732;2023-03-23T05:16:47;98735.64;;;6.55;39.15
69219;BME280;56232;53.384;-2.732;2023-03-23T05:19:13;98743.09;;;6.05;38.99
69219;BME280;56232;53.384;-2.732;2023-03-23T05:21:39;98741.43;;;5.99;39.12
69219;BME280;56232;53.384;-2.732;2023-03-23T05:24:06;98742.92;;;6.00;39.37
69219;BME280;56232;53.384;-2.732;2023-03-23T05:26:31;98752.66;;;6.53;39.10
69219;BME280;56232;53.384;-2.732;2023-03-23T05:28:56;98743.61;;;4.95;39.31
69219;BME280;56232;53.384;-2.732;2023-03-23T05:31:21;98739.32;;;7.10;38.82
69219;BME280;56232;53.384;-2.732;2023-03-23T05:33:47;98738.95;;;5.86;39.12
69219;BME280;56232;53.384;-2.732;2023-03-23T05:36:12;98741.31;;;5.76;39.43
69219;BME280;56232;53.384;-2.732;2023-03-23T05:38:38;98734.73;;;6.38;39.24
69219;BME280;56232;53.384;-2.732;2023-03-23T05:41:04;98722.35;;;6.44;39.08
69219;BME280;56232;53.384;-2.732;2023-03-23T05:43:29;98724.63;;;7.09;38.99
69219;BME280;56232;53.384;-2.732;2023-03-23T05:45:54;98724.94;;;6.06;39.03
69219;BME280;56232;53.384;-2.732;2023-03-23T05:48:20;98720.69;;;6.20;39.08
69219;BME280;56232;53.384;-2.732;2023-03-23T05:50:45;98718.14;;;5.81;39.29
69219;BME280;56232;53.384;-2.732;2023-03-23T05:53:11;98720.08;;;6.57;39.03
69219;BME280;56232;53.384;-2.732;2023-03-23T05:55:37;98720.72;;;6.76;38.90
69219;BME280;56232;53.384;-2.732;2023-03-23T05:58:02;98724.03;;;6.54;38.56
69219;BME280;56232;53.384;-2.732;2023-03-23T06:00:29;98721.78;;;7.27;38.75
69219;BME280;56232;53.384;-2.732;2023-03-23T06:02:54;98724.75;;;6.92;38.55
69219;BME280;56232;53.384;-2.732;2023-03-23T06:05:19;98711.78;;;7.18;38.26
69219;BME280;56232;53.384;-2.732;2023-03-23T06:07:44;98706.73;;;7.83;38.01
69219;BME280;56232;53.384;-2.732;2023-03-23T06:10:11;98705.13;;;6.72;38.03
69219;BME280;56232;53.384;-2.732;2023-03-23T06:12:37;98707.35;;;6.52;38.16
69219;BME280;56232;53.384;-2.732;2023-03-23T06:15:01;98712.44;;;6.40;38.23
69219;BME280;56232;53.384;-2.732;2023-03-23T06:17:28;98705.65;;;7.46;38.12
69219;BME280;56232;53.384;-2.732;2023-03-23T06:19:53;98702.69;;;6.84;38.52
69219;BME280;56232;53.384;-2.732;2023-03-23T06:22:19;98707.40;;;6.83;38.59
69219;BME280;56232;53.384;-2.732;2023-03-23T06:24:44;98710.38;;;6.86;38.45
69219;BME280;56232;53.384;-2.732;2023-03-23T06:27:10;98709.45;;;6.33;38.47
69219;BME280;56232;53.384;-2.732;2023-03-23T06:29:36;98709.09;;;7.54;38.20
69219;BME280;56232;53.384;-2.732;2023-03-23T06:32:02;98710.84;;;7.05;38.29
69219;BME280;56232;53.384;-2.732;2023-03-23T06:34:29;98702.90;;;6.56;38.25
69219;BME280;56232;53.384;-2.732;2023-03-23T06:36:53;98708.69;;;7.72;38.15
69219;BME280;56232;53.384;-2.732;2023-03-23T06:39:18;98711.67;;;7.24;38.18
69219;BME280;56232;53.384;-2.732;2023-03-23T06:41:44;98706.84;;;7.38;38.29
69219;BME280;56232;53.384;-2.732;2023-03-23T06:44:09;98700.83;;;7.69;38.08
69219;BME280;56232;53.384;-2.732;2023-03-23T06:46:35;98712.42;;;7.41;38.00
69219;BME280;56232;53.384;-2.732;2023-03-23T06:49:00;98709.58;;;7.50;37.59
69219;BME280;56232;53.384;-2.732;2023-03-23T06:51:27;98713.95;;;7.64;37.69
69219;BME280;56232;53.384;-2.732;2023-03-23T06:53:52;98716.87;;;7.98;37.61
69219;BME280;56232;53.384;-2.732;2023-03-23T06:56:17;98716.05;;;8.13;37.31
69219;BME280;56232;53.384;-2.732;2023-03-23T06:58:43;98718.92;;;8.21;37.10
69219;BME280;56232;53.384;-2.732;2023-03-23T07:01:09;98715.04;;;8.27;37.05
69219;BME280;56232;53.384;-2.732;2023-03-23T07:03:35;98709.39;;;8.28;37.13
69219;BME280;56232;53.384;-2.732;2023-03-23T07:06:00;98715.26;;;8.29;37.12
69219;BME280;56232;53.384;-2.732;2023-03-23T07:08:25;98720.75;;;8.44;37.15
69219;BME280;56232;53.384;-2.732;2023-03-23T07:10:51;98719.60;;;8.64;37.01
69219;BME280;56232;53.384;-2.732;2023-03-23T07:13:16;98716.41;;;8.35;37.07
69219;BME280;56232;53.384;-2.732;2023-03-23T07:15:42;98707.49;;;8.68;36.94
69219;BME280;56232;53.384;-2.732;2023-03-23T07:18:08;98701.51;;;8.72;36.62
69219;BME280;56232;53.384;-2.732;2023-03-23T07:20:34;98701.15;;;9.66;36.17
69219;BME280;56232;53.384;-2.732;2023-03-23T07:22:59;98712.64;;;9.60;36.03
69219;BME280;56232;53.384;-2.732;2023-03-23T07:25:24;98702.19;;;10.27;35.74
69219;BME280;56232;53.384;-2.732;2023-03-23T07:27:51;98702.81;;;9.78;35.36
69219;BME280;56232;53.384;-2.732;2023-03-23T07:30:16;98710.57;;;11.17;34.99
69219;BME280;56232;53.384;-2.732;2023-03-23T07:32:41;98703.41;;;9.98;34.89
69219;BME280;56232;53.384;-2.732;2023-03-23T07:35:08;98712.43;;;9.65;35.31
69219;BME280;56232;53.384;-2.732;2023-03-23T07:37:32;98711.20;;;11.16;35.64
69219;BME280;56232;53.384;-2.732;2023-03-23T07:39:58;98699.22;;;10.86;35.05
69219;BME280;56232;53.384;-2.732;2023-03-23T07:42:24;98694.50;;;11.83;34.36
69219;BME280;56232;53.384;-2.732;2023-03-23T07:44:50;98698.48;;;11.85;33.87
69219;BME280;56232;53.384;-2.732;2023-03-23T07:47:15;98701.14;;;11.30;33.81
69219;BME280;56232;53.384;-2.732;2023-03-23T07:49:40;98697.10;;;12.09;33.49
69219;BME280;56232;53.384;-2.732;2023-03-23T07:52:05;98701.43;;;11.23;33.22
69219;BME280;56232;53.384;-2.732;2023-03-23T07:54:31;98692.88;;;11.73;33.72
69219;BME280;56232;53.384;-2.732;2023-03-23T07:56:57;98691.41;;;11.35;34.07
69219;BME280;56232;53.384;-2.732;2023-03-23T07:59:22;98692.91;;;10.72;34.60
69219;BME280;56232;53.384;-2.732;2023-03-23T08:01:47;98691.79;;;10.75;34.87
69219;BME280;56232;53.384;-2.732;2023-03-23T08:04:13;98703.08;;;10.15;35.53
69219;BME280;56232;53.384;-2.732;2023-03-23T08:06:39;98711.94;;;10.49;35.70
69219;BME280;56232;53.384;-2.732;2023-03-23T08:09:05;98718.09;;;10.58;35.88
69219;BME280;56232;53.384;-2.732;2023-03-23T08:11:30;98722.40;;;11.35;35.40
69219;BME280;56232;53.384;-2.732;2023-03-23T08:13:56;98726.69;;;10.88;35.41
69219;BME280;56232;53.384;-2.732;2023-03-23T08:16:21;98727.36;;;10.87;35.39
69219;BME280;56232;53.384;-2.732;2023-03-23T08:18:47;98728.66;;;10.85;35.61
69219;BME280;56232;53.384;-2.732;2023-03-23T08:21:12;98724.74;;;11.13;35.47
69219;BME280;56232;53.384;-2.732;2023-03-23T08:23:38;98721.65;;;11.22;35.33
69219;BME280;56232;53.384;-2.732;2023-03-23T08:26:05;98726.66;;;11.02;35.20
69219;BME280;56232;53.384;-2.732;2023-03-23T08:28:30;98725.39;;;12.21;35.03
69219;BME280;56232;53.384;-2.732;2023-03-23T08:30:55;98719.73;;;13.41;33.26
69219;BME280;56232;53.384;-2.732;2023-03-23T08:33:20;98726.55;;;14.61;31.95
69219;BME280;56232;53.384;-2.732;2023-03-23T08:35:55;98736.89;;;15.10;31.90
69219;BME280;56232;53.384;-2.732;2023-03-23T08:38:12;98727.45;;;16.18;30.49
69219;BME280;56232;53.384;-2.732;2023-03-23T08:40:38;98735.01;;;17.16;29.98
69219;BME280;56232;53.384;-2.732;2023-03-23T08:43:03;98737.06;;;16.25;30.95
69219;BME280;56232;53.384;-2.732;2023-03-23T08:45:30;98738.24;;;15.57;31.89
69219;BME280;56232;53.384;-2.732;2023-03-23T08:47:54;98737.88;;;14.50;32.21
69219;BME280;56232;53.384;-2.732;2023-03-23T08:50:23;98736.35;;;14.05;32.85
69219;BME280;56232;53.384;-2.732;2023-03-23T08:52:46;98732.18;;;14.17;32.39
69219;BME280;56232;53.384;-2.732;2023-03-23T08:55:11;98732.76;;;14.86;31.32
69219;BME280;56232;53.384;-2.732;2023-03-23T08:57:36;98738.99;;;15.70;31.43
69219;BME280;56232;53.384;-2.732;2023-03-23T09:00:02;98746.18;;;14.55;32.03
69219;BME280;56232;53.384;-2.732;2023-03-23T09:02:28;98744.43;;;13.29;33.33
69219;BME280;56232;53.384;-2.732;2023-03-23T09:04:51;98751.80;;;13.09;33.61
69219;BME280;56232;53.384;-2.732;2023-03-23T09:07:17;98762.11;;;13.19;34.38
69219;BME280;56232;53.384;-2.732;2023-03-23T09:09:42;98764.43;;;12.47;34.98
69219;BME280;56232;53.384;-2.732;2023-03-23T09:12:09;98760.77;;;12.78;34.70
69219;BME280;56232;53.384;-2.732;2023-03-23T09:14:34;98765.98;;;14.37;33.07
69219;BME280;56232;53.384;-2.732;2023-03-23T09:16:59;98755.40;;;16.47;31.28
69219;BME280;56232;53.384;-2.732;2023-03-23T09:19:25;98754.19;;;16.78;30.81
69219;BME280;56232;53.384;-2.732;2023-03-23T09:21:51;98754.35;;;16.53;30.39
69219;BME280;56232;53.384;-2.732;2023-03-23T09:24:16;98750.95;;;16.50;30.50
69219;BME280;56232;53.384;-2.732;2023-03-23T09:26:42;98760.43;;;16.25;30.74
69219;BME280;56232;53.384;-2.732;2023-03-23T09:29:07;98757.69;;;16.54;30.44
69219;BME280;56232;53.384;-2.732;2023-03-23T09:31:33;98770.11;;;15.56;31.48
69219;BME280;56232;53.384;-2.732;2023-03-23T09:33:59;98769.45;;;15.73;31.82
69219;BME280;56232;53.384;-2.732;2023-03-23T09:36:25;98774.15;;;14.47;32.60
69219;BME280;56232;53.384;-2.732;2023-03-23T09:38:50;98771.28;;;13.44;33.61
69219;BME280;56232;53.384;-2.732;2023-03-23T09:43:53;98792.79;;;13.29;34.93
69219;BME280;56232;53.384;-2.732;2023-03-23T09:46:17;98803.52;;;11.87;35.26
69219;BME280;56232;53.384;-2.732;2023-03-23T09:48:40;98800.76;;;12.54;35.80
69219;BME280;56232;53.384;-2.732;2023-03-23T09:51:03;98806.72;;;12.59;35.56
69219;BME280;56232;53.384;-2.732;2023-03-23T09:53:28;98813.72;;;12.23;36.11
69219;BME280;56232;53.384;-2.732;2023-03-23T09:55:50;98818.67;;;11.52;36.45
69219;BME280;56232;53.384;-2.732;2023-03-23T09:58:18;98814.47;;;11.31;36.66
69219;BME280;56232;53.384;-2.732;2023-03-23T10:00:46;98816.22;;;11.45;36.73
69219;BME280;56232;53.384;-2.732;2023-03-23T10:03:13;98816.71;;;12.41;36.24
69219;BME280;56232;53.384;-2.732;2023-03-23T10:05:34;98816.08;;;12.92;35.79
69219;BME280;56232;53.384;-2.732;2023-03-23T10:07:59;98816.81;;;13.12;34.58
69219;BME280;56232;53.384;-2.732;2023-03-23T10:10:29;98810.23;;;13.71;34.26
69219;BME280;56232;53.384;-2.732;2023-03-23T10:12:54;98812.21;;;13.29;34.72
69219;BME280;56232;53.384;-2.732;2023-03-23T10:15:17;98812.23;;;11.83;34.85
69219;BME280;56232;53.384;-2.732;2023-03-23T10:17:46;98813.19;;;12.57;35.60
69219;BME280;56232;53.384;-2.732;2023-03-23T10:20:19;98817.20;;;12.25;35.61
69219;BME280;56232;53.384;-2.732;2023-03-23T10:22:33;98819.64;;;11.73;36.25
69219;BME280;56232;53.384;-2.732;2023-03-23T10:25:03;98813.90;;;11.50;36.58
69219;BME280;56232;53.384;-2.732;2023-03-23T10:27:36;98820.05;;;11.31;36.42
69219;BME280;56232;53.384;-2.732;2023-03-23T10:29:52;98825.53;;;11.95;36.33
69219;BME280;56232;53.384;-2.732;2023-03-23T10:32:16;98819.11;;;12.54;36.13
69219;BME280;56232;53.384;-2.732;2023-03-23T10:34:44;98820.73;;;12.05;36.05
69219;BME280;56232;53.384;-2.732;2023-03-23T10:37:11;98819.53;;;12.13;35.66
69219;BME280;56232;53.384;-2.732;2023-03-23T10:39:38;98817.64;;;11.97;36.20
69219;BME280;56232;53.384;-2.732;2023-03-23T10:41:57;98822.25;;;12.33;36.17
69219;BME280;56232;53.384;-2.732;2023-03-23T10:44:24;98830.87;;;12.41;36.11
69219;BME280;56232;53.384;-2.732;2023-03-23T10:46:53;98820.41;;;13.40;35.93
69219;BME280;56232;53.384;-2.732;2023-03-23T10:49:18;98812.85;;;13.07;36.30
69219;BME280;56232;53.384;-2.732;2023-03-23T10:51:41;98821.76;;;12.91;35.78
69219;BME280;56232;53.384;-2.732;2023-03-23T10:54:05;98810.14;;;13.38;35.81
69219;BME280;56232;53.384;-2.732;2023-03-23T10:56:36;98815.54;;;12.52;35.83
69219;BME280;56232;53.384;-2.732;2023-03-23T10:58:56;98814.65;;;13.50;36.30
69219;BME280;56232;53.384;-2.732;2023-03-23T11:01:29;98825.12;;;13.50;36.24
69219;BME280;56232;53.384;-2.732;2023-03-23T11:03:48;98823.26;;;12.41;36.41
69219;BME280;56232;53.384;-2.732;2023-03-23T11:06:19;98811.92;;;13.05;36.57
69219;BME280;56232;53.384;-2.732;2023-03-23T11:08:48;98804.91;;;13.71;36.39
69219;BME280;56232;53.384;-2.732;2023-03-23T11:11:10;98800.97;;;13.92;37.12
69219;BME280;56232;53.384;-2.732;2023-03-23T11:13:31;98815.26;;;13.17;37.00
69219;BME280;56232;53.384;-2.732;2023-03-23T11:15:55;98807.01;;;13.93;36.22
69219;BME280;56232;53.384;-2.732;2023-03-23T11:18:26;98816.40;;;13.98;36.53
69219;BME280;56232;53.384;-2.732;2023-03-23T11:20:49;98817.18;;;15.77;36.36
69219;BME280;56232;53.384;-2.732;2023-03-23T11:23:19;98810.71;;;15.75;35.56
69219;BME280;56232;53.384;-2.732;2023-03-23T11:28:03;98804.40;;;16.88;34.88
69219;BME280;56232;53.384;-2.732;2023-03-23T11:30:34;98811.04;;;17.87;34.14
69219;BME280;56232;53.384;-2.732;2023-03-23T11:32:58;98808.14;;;17.14;34.03
69219;BME280;56232;53.384;-2.732;2023-03-23T11:35:22;98804.58;;;17.60;33.84
69219;BME280;56232;53.384;-2.732;2023-03-23T11:37:49;98813.48;;;17.91;33.29
69219;BME280;56232;53.384;-2.732;2023-03-23T11:40:16;98813.73;;;17.58;32.48
69219;BME280;56232;53.384;-2.732;2023-03-23T11:42:38;98809.50;;;17.63;33.79
69219;BME280;56232;53.384;-2.732;2023-03-23T11:45:14;98810.19;;;17.91;33.96
69219;BME280;56232;53.384;-2.732;2023-03-23T11:47:32;98806.43;;;18.59;33.07
69219;BME280;56232;53.384;-2.732;2023-03-23T11:49:57;98804.15;;;17.44;34.26
69219;BME280;56232;53.384;-2.732;2023-03-23T11:52:24;98800.55;;;17.02;34.38
69219;BME280;56232;53.384;-2.732;2023-03-23T11:54:50;98790.89;;;17.55;33.32
69219;BME280;56232;53.384;-2.732;2023-03-23T11:57:11;98800.34;;;17.28;33.30
69219;BME280;56232;53.384;-2.732;2023-03-23T11:59:36;98793.68;;;17.93;33.89
69219;BME280;56232;53.384;-2.732;2023-03-23T12:04:37;98800.46;;;17.58;33.65
69219;BME280;56232;53.384;-2.732;2023-03-23T12:06:57;98801.49;;;17.85;33.25
69219;BME280;56232;53.384;-2.732;2023-03-23T12:09:28;98814.76;;;17.04;33.73
69219;BME280;56232;53.384;-2.732;2023-03-23T12:11:53;98803.40;;;17.10;34.24
69219;BME280;56232;53.384;-2.732;2023-03-23T12:14:16;98797.66;;;15.93;34.13
69219;BME280;56232;53.384;-2.732;2023-03-23T12:16:46;98798.60;;;16.65;33.86
69219;BME280;56232;53.384;-2.732;2023-03-23T12:19:04;98789.83;;;16.63;33.61
69219;BME280;56232;53.384;-2.732;2023-03-23T12:21:32;98787.42;;;16.90;34.08
69219;BME280;56232;53.384;-2.732;2023-03-23T12:23:58;98791.78;;;16.97;34.78
69219;BME280;56232;53.384;-2.732;2023-03-23T12:26:20;98791.29;;;16.83;34.08
69219;BME280;56232;53.384;-2.732;2023-03-23T12:31:13;98791.92;;;16.38;34.99
69219;BME280;56232;53.384;-2.732;2023-03-23T12:33:41;98790.31;;;16.12;34.93
69219;BME280;56232;53.384;-2.732;2023-03-23T12:36:05;98783.94;;;16.14;35.88
69219;BME280;56232;53.384;-2.732;2023-03-23T12:40:59;98790.00;;;17.38;34.27
69219;BME280;56232;53.384;-2.732;2023-03-23T12:43:22;98787.63;;;18.43;33.47
69219;BME280;56232;53.384;-2.732;2023-03-23T12:45:52;98787.99;;;17.56;32.52
69219;BME280;56232;53.384;-2.732;2023-03-23T12:48:11;98780.66;;;18.73;32.39
69219;BME280;56232;53.384;-2.732;2023-03-23T12:50:37;98779.02;;;17.70;33.90
69219;BME280;56232;53.384;-2.732;2023-03-23T12:53:02;98782.92;;;17.24;33.07
69219;BME280;56232;53.384;-2.732;2023-03-23T12:55:30;98776.38;;;17.47;32.38
69219;BME280;56232;53.384;-2.732;2023-03-23T12:57:52;98770.50;;;17.68;34.38
69219;BME280;56232;53.384;-2.732;2023-03-23T13:00:18;98771.43;;;17.27;35.01
69219;BME280;56232;53.384;-2.732;2023-03-23T13:02:43;98762.55;;;16.66;35.49
69219;BME280;56232;53.384;-2.732;2023-03-23T13:05:09;98764.39;;;16.40;36.35